sensor_id;sensor_type;location;lat;lon;timestamp;pressure;altitude;pressure_sealevel;temperature;humidity
54600;BME280;40500;51.084;16.958;2023-06-22T00:02:39;100499.92;;;22.22;100.00
54600;BME280;40500;51.084;16.958;2023-06-22T00:05:29;100501.70;;;22.23;100.00
54600;BME280;40500;51.084;16.958;2023-06-22T00:08:18;100502.95;;;22.20;100.00
54600;BME280;40500;51.084;16.958;2023-06-22T00:11:23;100501.01;;;22.19;100.00
54600;BME280;40500;51.084;16.958;2023-06-22T00:14:17;100513.22;;;22.21;100.00
54600;BME280;40500;51.084;16.958;2023-06-22T00:17:05;100517.02;;;22.20;100.00
54600;BME280;40500;51.084;16.958;2023-06-22T00:19:53;100515.64;;;22.19;100.00
54600;BME280;40500;51.084;16.958;2023-06-22T00:22:49;100521.86;;;22.17;100.00
54600;BME280;40500;51.084;16.958;2023-06-22T00:25:21;100524.63;;;22.12;100.00
54600;BME280;40500;51.084;16.958;2023-06-22T00:28:11;100527.95;;;22.10;100.00
54600;BME280;40500;51.084;16.958;2023-06-22T00:30:59;100532.91;;;22.08;100.00
54600;BME280;40500;51.084;16.958;2023-06-22T00:33:49;100533.55;;;22.04;100.00
54600;BME280;40500;51.084;16.958;2023-06-22T00:36:41;100535.85;;;21.98;100.00
54600;BME280;40500;51.084;16.958;2023-06-22T00:39:23;100534.20;;;21.93;100.00
54600;BME280;40500;51.084;16.958;2023-06-22T00:42:14;100536.00;;;21.90;100.00
54600;BME280;40500;51.084;16.958;2023-06-22T00:45:18;100538.15;;;21.84;100.00
54600;BME280;40500;51.084;16.958;2023-06-22T00:48:09;100547.70;;;21.76;100.00
54600;BME280;40500;51.084;16.958;2023-06-22T00:51:11;100548.02;;;21.68;100.00
54600;BME280;40500;51.084;16.958;2023-06-22T00:53:40;100547.30;;;21.59;100.00
54600;BME280;40500;51.084;16.958;2023-06-22T00:56:33;100548.73;;;21.53;100.00
54600;BME280;40500;51.084;16.958;2023-06-22T00:59:13;100552.10;;;21.47;100.00
54600;BME280;40500;51.084;16.958;2023-06-22T01:02:07;100552.95;;;21.41;100.00
54600;BME280;40500;51.084;16.958;2023-06-22T01:05:09;100547.89;;;21.37;100.00
54600;BME280;40500;51.084;16.958;2023-06-22T01:08:18;100553.17;;;21.31;100.00
54600;BME280;40500;51.084;16.958;2023-06-22T01:11:15;100564.11;;;21.27;100.00
54600;BME280;40500;51.084;16.958;2023-06-22T01:14:14;100563.77;;;21.24;100.00
54600;BME280;40500;51.084;16.958;2023-06-22T01:17:17;100564.61;;;21.21;100.00
54600;BME280;40500;51.084;16.958;2023-06-22T01:20:15;100568.48;;;21.19;100.00
54600;BME280;40500;51.084;16.958;2023-06-22T01:23:11;100568.25;;;21.17;100.00
54600;BME280;40500;51.084;16.958;2023-06-22T01:26:14;100568.25;;;21.14;100.00
54600;BME280;40500;51.084;16.958;2023-06-22T01:32:16;100577.44;;;21.06;100.00
54600;BME280;40500;51.084;16.958;2023-06-22T01:34:52;100577.95;;;21.03;100.00
54600;BME280;40500;51.084;16.958;2023-06-22T01:37:25;100574.73;;;21.00;100.00
54600;BME280;40500;51.084;16.958;2023-06-22T01:40:16;100572.46;;;20.96;100.00
54600;BME280;40500;51.084;16.958;2023-06-22T01:43:12;100575.59;;;20.91;100.00
54600;BME280;40500;51.084;16.958;2023-06-22T01:46:06;100574.18;;;20.84;100.00
54600;BME280;40500;51.084;16.958;2023-06-22T01:49:11;100575.89;;;20.79;100.00
54600;BME280;40500;51.084;16.958;2023-06-22T01:52:04;100575.98;;;20.75;100.00
54600;BME280;40500;51.084;16.958;2023-06-22T01:54:54;100572.74;;;20.72;100.00
54600;BME280;40500;51.084;16.958;2023-06-22T01:57:36;100574.45;;;20.70;100.00
54600;BME280;40500;51.084;16.958;2023-06-22T02:00:30;100573.73;;;20.67;100.00
54600;BME280;40500;51.084;16.958;2023-06-22T02:03:23;100567.55;;;20.63;100.00
54600;BME280;40500;51.084;16.958;2023-06-22T02:06:17;100567.29;;;20.54;100.00
54600;BME280;40500;51.084;16.958;2023-06-22T02:09:18;100567.91;;;20.45;100.00
54600;BME280;40500;51.084;16.958;2023-06-22T02:12:16;100567.85;;;20.40;100.00
54600;BME280;40500;51.084;16.958;2023-06-22T02:15:09;100576.73;;;20.37;100.00
54600;BME280;40500;51.084;16.958;2023-06-22T02:17:57;100574.45;;;20.30;100.00
54600;BME280;40500;51.084;16.958;2023-06-22T02:20:48;100576.04;;;20.24;100.00
54600;BME280;40500;51.084;16.958;2023-06-22T02:23:39;100578.50;;;20.14;100.00
54600;BME280;40500;51.084;16.958;2023-06-22T02:26:30;100579.18;;;20.05;100.00
54600;BME280;40500;51.084;16.958;2023-06-22T02:29:22;100582.06;;;19.97;100.00
54600;BME280;40500;51.084;16.958;2023-06-22T02:31:58;100582.48;;;19.89;100.00
54600;BME280;40500;51.084;16.958;2023-06-22T02:34:27;100583.46;;;19.84;100.00
54600;BME280;40500;51.084;16.958;2023-06-22T02:37:19;100582.71;;;19.77;100.00
54600;BME280;40500;51.084;16.958;2023-06-22T02:39:49;100584.24;;;19.71;100.00
54600;BME280;40500;51.084;16.958;2023-06-22T02:42:39;100583.67;;;19.65;100.00
54600;BME280;40500;51.084;16.958;2023-06-22T02:45:30;100583.30;;;19.58;100.00
54600;BME280;40500;51.084;16.958;2023-06-22T02:48:19;100577.46;;;19.54;100.00
54600;BME280;40500;51.084;16.958;2023-06-22T02:51:08;100575.64;;;19.51;100.00
54600;BME280;40500;51.084;16.958;2023-06-22T02:53:56;100581.20;;;19.54;100.00
54600;BME280;40500;51.084;16.958;2023-06-22T02:56:51;100583.48;;;19.55;100.00
54600;BME280;40500;51.084;16.958;2023-06-22T02:59:39;100582.65;;;19.50;100.00
54600;BME280;40500;51.084;16.958;2023-06-22T03:02:32;100586.17;;;19.47;100.00
54600;BME280;40500;51.084;16.958;2023-06-22T03:05:25;100586.00;;;19.50;100.00
54600;BME280;40500;51.084;16.958;2023-06-22T03:08:18;100587.06;;;19.54;100.00
54600;BME280;40500;51.084;16.958;2023-06-22T03:11:06;100591.77;;;19.56;100.00
54600;BME280;40500;51.084;16.958;2023-06-22T03:13:55;100596.08;;;19.55;100.00
54600;BME280;40500;51.084;16.958;2023-06-22T03:16:46;100596.33;;;19.53;100.00
54600;BME280;40500;51.084;16.958;2023-06-22T03:19:37;100602.48;;;19.55;100.00
54600;BME280;40500;51.084;16.958;2023-06-22T03:22:29;100602.94;;;19.56;100.00
54600;BME280;40500;51.084;16.958;2023-06-22T03:25:01;100603.26;;;19.57;100.00
54600;BME280;40500;51.084;16.958;2023-06-22T03:27:58;100611.21;;;19.61;100.00
54600;BME280;40500;51.084;16.958;2023-06-22T03:30:48;100609.34;;;19.63;100.00
54600;BME280;40500;51.084;16.958;2023-06-22T03:33:37;100611.08;;;19.67;100.00
54600;BME280;40500;51.084;16.958;2023-06-22T03:36:28;100615.06;;;19.73;100.00
54600;BME280;40500;51.084;16.958;2023-06-22T03:39:22;100623.35;;;19.79;100.00
54600;BME280;40500;51.084;16.958;2023-06-22T03:41:52;100625.19;;;19.81;100.00
54600;BME280;40500;51.084;16.958;2023-06-22T03:44:40;100626.30;;;19.84;100.00
54600;BME280;40500;51.084;16.958;2023-06-22T03:47:31;100620.07;;;19.87;100.00
54600;BME280;40500;51.084;16.958;2023-06-22T03:50:20;100625.78;;;19.90;100.00
54600;BME280;40500;51.084;16.958;2023-06-22T03:53:08;100628.89;;;19.95;100.00
54600;BME280;40500;51.084;16.958;2023-06-22T03:56:03;100632.08;;;19.99;100.00
54600;BME280;40500;51.084;16.958;2023-06-22T03:58:55;100630.95;;;20.04;100.00
54600;BME280;40500;51.084;16.958;2023-06-22T04:01:47;100638.70;;;20.08;100.00
54600;BME280;40500;51.084;16.958;2023-06-22T04:04:40;100644.15;;;20.13;100.00
54600;BME280;40500;51.084;16.958;2023-06-22T04:07:31;100645.50;;;20.18;100.00
54600;BME280;40500;51.084;16.958;2023-06-22T04:10:01;100636.21;;;20.22;100.00
54600;BME280;40500;51.084;16.958;2023-06-22T04:12:52;100644.94;;;20.29;100.00
54600;BME280;40500;51.084;16.958;2023-06-22T04:15:43;100645.65;;;20.36;100.00
54600;BME280;40500;51.084;16.958;2023-06-22T04:18:35;100648.02;;;20.41;100.00
54600;BME280;40500;51.084;16.958;2023-06-22T04:21:24;100651.80;;;20.47;100.00
54600;BME280;40500;51.084;16.958;2023-06-22T04:24:18;100650.02;;;20.53;100.00
54600;BME280;40500;51.084;16.958;2023-06-22T04:27:08;100651.67;;;20.60;100.00
54600;BME280;40500;51.084;16.958;2023-06-22T04:29:57;100652.51;;;20.65;100.00
54600;BME280;40500;51.084;16.958;2023-06-22T04:32:58;100648.20;;;20.72;100.00
54600;BME280;40500;51.084;16.958;2023-06-22T04:35:52;100646.39;;;20.76;100.00
54600;BME280;40500;51.084;16.958;2023-06-22T04:38:44;100650.38;;;20.84;100.00
54600;BME280;40500;51.084;16.958;2023-06-22T04:41:17;100655.81;;;20.95;100.00
54600;BME280;40500;51.084;16.958;2023-06-22T04:44:13;100657.96;;;21.08;100.00
54600;BME280;40500;51.084;16.958;2023-06-22T04:47:04;100654.19;;;21.18;100.00
54600;BME280;40500;51.084;16.958;2023-06-22T04:49:56;100661.02;;;21.30;100.00
54600;BME280;40500;51.084;16.958;2023-06-22T04:53:02;100659.95;;;21.39;100.00
54600;BME280;40500;51.084;16.958;2023-06-22T04:56:01;100664.32;;;21.51;100.00
54600;BME280;40500;51.084;16.958;2023-06-22T04:58:53;100670.46;;;21.59;100.00
54600;BME280;40500;51.084;16.958;2023-06-22T05:01:44;100666.52;;;21.65;100.00
54600;BME280;40500;51.084;16.958;2023-06-22T05:04:39;100663.29;;;21.75;100.00
54600;BME280;40500;51.084;16.958;2023-06-22T05:07:32;100664.39;;;21.86;100.00
54600;BME280;40500;51.084;16.958;2023-06-22T05:10:21;100666.98;;;22.00;100.00
54600;BME280;40500;51.084;16.958;2023-06-22T05:13:17;100669.85;;;22.11;100.00
54600;BME280;40500;51.084;16.958;2023-06-22T05:16:16;100668.05;;;22.24;100.00
54600;BME280;40500;51.084;16.958;2023-06-22T05:19:19;100670.45;;;22.32;100.00
54600;BME280;40500;51.084;16.958;2023-06-22T05:22:10;100660.75;;;22.42;100.00
54600;BME280;40500;51.084;16.958;2023-06-22T05:25:02;100658.08;;;22.50;100.00
54600;BME280;40500;51.084;16.958;2023-06-22T05:27:55;100656.48;;;22.59;100.00
54600;BME280;40500;51.084;16.958;2023-06-22T05:30:50;100650.44;;;22.67;100.00
54600;BME280;40500;51.084;16.958;2023-06-22T05:33:43;100648.15;;;22.75;100.00
54600;BME280;40500;51.084;16.958;2023-06-22T05:36:35;100652.31;;;22.80;100.00
54600;BME280;40500;51.084;16.958;2023-06-22T05:39:24;100652.33;;;22.85;100.00
54600;BME280;40500;51.084;16.958;2023-06-22T05:42:21;100649.89;;;22.90;100.00
54600;BME280;40500;51.084;16.958;2023-06-22T05:45:20;100649.29;;;22.94;100.00
54600;BME280;40500;51.084;16.958;2023-06-22T05:48:12;100652.26;;;22.98;100.00
54600;BME280;40500;51.084;16.958;2023-06-22T05:51:02;100651.34;;;23.01;100.00
54600;BME280;40500;51.084;16.958;2023-06-22T05:53:55;100656.23;;;23.03;100.00
54600;BME280;40500;51.084;16.958;2023-06-22T05:56:58;100658.71;;;23.12;100.00
54600;BME280;40500;51.084;16.958;2023-06-22T05:59:26;100655.77;;;23.21;100.00
54600;BME280;40500;51.084;16.958;2023-06-22T06:01:53;100659.04;;;23.29;100.00
54600;BME280;40500;51.084;16.958;2023-06-22T06:04:21;100661.70;;;23.38;100.00
54600;BME280;40500;51.084;16.958;2023-06-22T06:06:49;100661.00;;;23.43;100.00
54600;BME280;40500;51.084;16.958;2023-06-22T06:09:17;100663.89;;;23.45;100.00
54600;BME280;40500;51.084;16.958;2023-06-22T06:11:44;100666.98;;;23.49;100.00
54600;BME280;40500;51.084;16.958;2023-06-22T06:14:12;100665.64;;;23.56;100.00
54600;BME280;40500;51.084;16.958;2023-06-22T06:16:40;100661.59;;;23.61;100.00
54600;BME280;40500;51.084;16.958;2023-06-22T06:19:08;100660.84;;;23.64;100.00
54600;BME280;40500;51.084;16.958;2023-06-22T06:21:35;100667.48;;;23.69;100.00
54600;BME280;40500;51.084;16.958;2023-06-22T06:24:04;100671.58;;;23.75;100.00
54600;BME280;40500;51.084;16.958;2023-06-22T06:26:32;100678.36;;;23.81;100.00
54600;BME280;40500;51.084;16.958;2023-06-22T06:29:02;100674.64;;;23.88;100.00
54600;BME280;40500;51.084;16.958;2023-06-22T06:31:33;100669.68;;;23.95;100.00
54600;BME280;40500;51.084;16.958;2023-06-22T06:34:01;100670.27;;;24.00;100.00
54600;BME280;40500;51.084;16.958;2023-06-22T06:36:31;100669.13;;;24.04;100.00
54600;BME280;40500;51.084;16.958;2023-06-22T06:38:59;100665.73;;;24.04;100.00
54600;BME280;40500;51.084;16.958;2023-06-22T06:41:27;100665.02;;;24.06;100.00
54600;BME280;40500;51.084;16.958;2023-06-22T06:43:55;100663.64;;;24.11;100.00
54600;BME280;40500;51.084;16.958;2023-06-22T06:46:22;100664.46;;;24.17;100.00
54600;BME280;40500;51.084;16.958;2023-06-22T06:48:50;100667.98;;;24.20;100.00
54600;BME280;40500;51.084;16.958;2023-06-22T06:51:20;100672.72;;;24.24;100.00
54600;BME280;40500;51.084;16.958;2023-06-22T06:53:48;100675.27;;;24.26;100.00
54600;BME280;40500;51.084;16.958;2023-06-22T06:56:17;100678.65;;;24.29;100.00
54600;BME280;40500;51.084;16.958;2023-06-22T06:58:44;100679.76;;;24.37;100.00
54600;BME280;40500;51.084;16.958;2023-06-22T07:01:12;100681.99;;;24.43;100.00
54600;BME280;40500;51.084;16.958;2023-06-22T07:03:40;100688.39;;;24.49;100.00
54600;BME280;40500;51.084;16.958;2023-06-22T07:06:11;100692.01;;;24.59;100.00
54600;BME280;40500;51.084;16.958;2023-06-22T07:08:39;100693.57;;;24.67;100.00
54600;BME280;40500;51.084;16.958;2023-06-22T07:11:09;100694.84;;;24.75;100.00
54600;BME280;40500;51.084;16.958;2023-06-22T07:13:38;100698.96;;;24.85;100.00
54600;BME280;40500;51.084;16.958;2023-06-22T07:16:06;100702.81;;;24.97;100.00
54600;BME280;40500;51.084;16.958;2023-06-22T07:18:40;100704.22;;;25.07;100.00
54600;BME280;40500;51.084;16.958;2023-06-22T07:21:17;100705.39;;;25.15;100.00
54600;BME280;40500;51.084;16.958;2023-06-22T07:23:45;100701.02;;;25.24;100.00
54600;BME280;40500;51.084;16.958;2023-06-22T07:26:21;100702.90;;;25.33;100.00
54600;BME280;40500;51.084;16.958;2023-06-22T07:29:11;100693.16;;;25.48;100.00
54600;BME280;40500;51.084;16.958;2023-06-22T07:31:42;100689.73;;;25.61;100.00
54600;BME280;40500;51.084;16.958;2023-06-22T07:34:21;100687.96;;;25.65;100.00
54600;BME280;40500;51.084;16.958;2023-06-22T07:36:56;100688.48;;;25.68;100.00
54600;BME280;40500;51.084;16.958;2023-06-22T07:39:26;100691.09;;;25.81;100.00
54600;BME280;40500;51.084;16.958;2023-06-22T07:42:11;100692.81;;;25.87;100.00
54600;BME280;40500;51.084;16.958;2023-06-22T07:45:08;100692.82;;;25.89;100.00
54600;BME280;40500;51.084;16.958;2023-06-22T07:47:41;100694.29;;;25.91;100.00
54600;BME280;40500;51.084;16.958;2023-06-22T07:50:32;100701.27;;;25.92;100.00
54600;BME280;40500;51.084;16.958;2023-06-22T07:53:05;100695.18;;;25.89;100.00
54600;BME280;40500;51.084;16.958;2023-06-22T07:55:37;100687.91;;;25.78;100.00
54600;BME280;40500;51.084;16.958;2023-06-22T07:58:06;100679.60;;;25.67;100.00
54600;BME280;40500;51.084;16.958;2023-06-22T08:00:40;100684.11;;;25.69;100.00
54600;BME280;40500;51.084;16.958;2023-06-22T08:03:26;100680.05;;;25.68;100.00
54600;BME280;40500;51.084;16.958;2023-06-22T08:05:53;100675.67;;;25.67;100.00
54600;BME280;40500;51.084;16.958;2023-06-22T08:08:28;100677.80;;;25.74;100.00
54600;BME280;40500;51.084;16.958;2023-06-22T08:10:56;100675.41;;;25.79;100.00
54600;BME280;40500;51.084;16.958;2023-06-22T08:13:27;100675.64;;;25.86;100.00
54600;BME280;40500;51.084;16.958;2023-06-22T08:15:58;100675.52;;;25.97;100.00
54600;BME280;40500;51.084;16.958;2023-06-22T08:18:25;100674.09;;;26.07;100.00
54600;BME280;40500;51.084;16.958;2023-06-22T08:20:53;100672.12;;;26.16;100.00
54600;BME280;40500;51.084;16.958;2023-06-22T08:23:21;100673.36;;;26.23;100.00
54600;BME280;40500;51.084;16.958;2023-06-22T08:25:48;100663.56;;;26.25;100.00
54600;BME280;40500;51.084;16.958;2023-06-22T08:28:20;100659.40;;;26.18;100.00
54600;BME280;40500;51.084;16.958;2023-06-22T08:30:47;100653.63;;;26.09;100.00
54600;BME280;40500;51.084;16.958;2023-06-22T08:33:17;100646.40;;;26.00;100.00
54600;BME280;40500;51.084;16.958;2023-06-22T08:35:55;100644.96;;;26.02;100.00
54600;BME280;40500;51.084;16.958;2023-06-22T08:38:24;100646.31;;;26.09;100.00
54600;BME280;40500;51.084;16.958;2023-06-22T08:40:55;100646.63;;;26.12;100.00
54600;BME280;40500;51.084;16.958;2023-06-22T08:43:22;100644.71;;;26.11;100.00
54600;BME280;40500;51.084;16.958;2023-06-22T08:45:50;100644.02;;;26.15;100.00
54600;BME280;40500;51.084;16.958;2023-06-22T08:48:18;100641.11;;;26.18;100.00
54600;BME280;40500;51.084;16.958;2023-06-22T08:50:50;100638.61;;;26.11;100.00
54600;BME280;40500;51.084;16.958;2023-06-22T08:53:25;100641.30;;;26.04;100.00
54600;BME280;40500;51.084;16.958;2023-06-22T08:55:55;100635.08;;;26.01;100.00
54600;BME280;40500;51.084;16.958;2023-06-22T08:58:29;100634.36;;;26.10;100.00
54600;BME280;40500;51.084;16.958;2023-06-22T09:01:13;100640.02;;;26.23;100.00
54600;BME280;40500;51.084;16.958;2023-06-22T09:03:44;100646.52;;;26.24;100.00
54600;BME280;40500;51.084;16.958;2023-06-22T09:06:21;100646.78;;;26.23;100.00
54600;BME280;40500;51.084;16.958;2023-06-22T09:08:49;100644.79;;;26.33;100.00
54600;BME280;40500;51.084;16.958;2023-06-22T09:11:17;100642.16;;;26.48;100.00
54600;BME280;40500;51.084;16.958;2023-06-22T09:13:45;100638.17;;;26.63;100.00
54600;BME280;40500;51.084;16.958;2023-06-22T09:16:15;100635.48;;;26.74;100.00
54600;BME280;40500;51.084;16.958;2023-06-22T09:18:45;100636.39;;;26.80;100.00
54600;BME280;40500;51.084;16.958;2023-06-22T09:21:15;100637.25;;;26.81;100.00
54600;BME280;40500;51.084;16.958;2023-06-22T09:23:43;100638.52;;;26.78;100.00
54600;BME280;40500;51.084;16.958;2023-06-22T09:26:10;100637.47;;;26.82;100.00
54600;BME280;40500;51.084;16.958;2023-06-22T09:28:38;100637.01;;;26.89;100.00
54600;BME280;40500;51.084;16.958;2023-06-22T09:31:08;100641.74;;;26.90;100.00
54600;BME280;40500;51.084;16.958;2023-06-22T09:33:37;100641.33;;;26.91;100.00
54600;BME280;40500;51.084;16.958;2023-06-22T09:36:19;100641.75;;;26.90;100.00
54600;BME280;40500;51.084;16.958;2023-06-22T09:38:48;100642.98;;;26.83;100.00
54600;BME280;40500;51.084;16.958;2023-06-22T09:41:33;100641.13;;;26.84;100.00
54600;BME280;40500;51.084;16.958;2023-06-22T09:44:02;100638.07;;;26.89;100.00
54600;BME280;40500;51.084;16.958;2023-06-22T09:46:30;100633.85;;;26.92;100.00
54600;BME280;40500;51.084;16.958;2023-06-22T09:48:58;100631.38;;;26.92;100.00
54600;BME280;40500;51.084;16.958;2023-06-22T09:51:25;100626.16;;;26.87;100.00
54600;BME280;40500;51.084;16.958;2023-06-22T09:53:54;100623.58;;;26.95;100.00
54600;BME280;40500;51.084;16.958;2023-06-22T09:56:29;100626.10;;;26.97;100.00
54600;BME280;40500;51.084;16.958;2023-06-22T09:58:57;100623.59;;;26.97;100.00
54600;BME280;40500;51.084;16.958;2023-06-22T10:01:44;100628.80;;;27.08;100.00
54600;BME280;40500;51.084;16.958;2023-06-22T10:04:12;100624.84;;;27.14;100.00
54600;BME280;40500;51.084;16.958;2023-06-22T10:06:45;100630.27;;;27.23;100.00
54600;BME280;40500;51.084;16.958;2023-06-22T10:09:13;100629.84;;;27.26;100.00
54600;BME280;40500;51.084;16.958;2023-06-22T10:11:41;100625.90;;;27.21;100.00
54600;BME280;40500;51.084;16.958;2023-06-22T10:14:13;100614.84;;;27.16;100.00
54600;BME280;40500;51.084;16.958;2023-06-22T10:16:41;100614.83;;;27.11;100.00
54600;BME280;40500;51.084;16.958;2023-06-22T10:19:09;100612.25;;;27.10;100.00
54600;BME280;40500;51.084;16.958;2023-06-22T10:21:39;100607.08;;;27.16;100.00
54600;BME280;40500;51.084;16.958;2023-06-22T10:24:08;100601.18;;;27.29;100.00
54600;BME280;40500;51.084;16.958;2023-06-22T10:26:36;100597.45;;;27.35;100.00
54600;BME280;40500;51.084;16.958;2023-06-22T10:29:04;100593.84;;;27.35;100.00
54600;BME280;40500;51.084;16.958;2023-06-22T10:31:36;100592.32;;;27.45;100.00
54600;BME280;40500;51.084;16.958;2023-06-22T10:34:05;100580.96;;;27.56;100.00
54600;BME280;40500;51.084;16.958;2023-06-22T10:36:34;100581.52;;;27.64;100.00
54600;BME280;40500;51.084;16.958;2023-06-22T10:39:03;100581.77;;;27.76;100.00
54600;BME280;40500;51.084;16.958;2023-06-22T10:41:34;100574.96;;;27.92;100.00
54600;BME280;40500;51.084;16.958;2023-06-22T10:44:04;100569.96;;;28.11;100.00
54600;BME280;40500;51.084;16.958;2023-06-22T10:46:32;100580.59;;;28.34;100.00
54600;BME280;40500;51.084;16.958;2023-06-22T10:49:02;100579.44;;;28.57;100.00
54600;BME280;40500;51.084;16.958;2023-06-22T10:51:29;100579.58;;;28.75;100.00
54600;BME280;40500;51.084;16.958;2023-06-22T10:54:00;100577.11;;;28.84;100.00
54600;BME280;40500;51.084;16.958;2023-06-22T10:56:29;100573.20;;;28.95;100.00
54600;BME280;40500;51.084;16.958;2023-06-22T10:58:57;100561.22;;;29.08;100.00
54600;BME280;40500;51.084;16.958;2023-06-22T11:01:26;100557.38;;;29.22;100.00
54600;BME280;40500;51.084;16.958;2023-06-22T11:04:05;100556.96;;;29.33;100.00
54600;BME280;40500;51.084;16.958;2023-06-22T11:06:33;100562.71;;;29.39;100.00
54600;BME280;40500;51.084;16.958;2023-06-22T11:09:00;100564.39;;;29.32;100.00
54600;BME280;40500;51.084;16.958;2023-06-22T11:11:31;100564.28;;;29.32;100.00
54600;BME280;40500;51.084;16.958;2023-06-22T11:13:59;100558.73;;;29.45;100.00
54600;BME280;40500;51.084;16.958;2023-06-22T11:16:26;100558.96;;;29.67;100.00
54600;BME280;40500;51.084;16.958;2023-06-22T11:18:54;100559.19;;;29.88;100.00
54600;BME280;40500;51.084;16.958;2023-06-22T11:21:22;100556.05;;;29.98;100.00
54600;BME280;40500;51.084;16.958;2023-06-22T11:23:50;100548.63;;;30.12;100.00
54600;BME280;40500;51.084;16.958;2023-06-22T11:26:18;100548.30;;;30.23;100.00
54600;BME280;40500;51.084;16.958;2023-06-22T11:28:45;100549.27;;;30.34;100.00
54600;BME280;40500;51.084;16.958;2023-06-22T11:31:15;100546.11;;;30.39;100.00
54600;BME280;40500;51.084;16.958;2023-06-22T11:33:53;100539.50;;;30.39;100.00
54600;BME280;40500;51.084;16.958;2023-06-22T11:36:21;100541.55;;;30.50;100.00
54600;BME280;40500;51.084;16.958;2023-06-22T11:38:49;100536.17;;;30.69;100.00
54600;BME280;40500;51.084;16.958;2023-06-22T11:41:17;100537.80;;;30.86;100.00
54600;BME280;40500;51.084;16.958;2023-06-22T11:43:45;100535.27;;;30.85;100.00
54600;BME280;40500;51.084;16.958;2023-06-22T11:46:17;100534.63;;;30.80;100.00
54600;BME280;40500;51.084;16.958;2023-06-22T11:48:44;100537.17;;;30.65;100.00
54600;BME280;40500;51.084;16.958;2023-06-22T11:51:15;100538.28;;;30.50;100.00
54600;BME280;40500;51.084;16.958;2023-06-22T11:53:43;100541.98;;;30.36;100.00
54600;BME280;40500;51.084;16.958;2023-06-22T11:56:11;100536.81;;;30.22;100.00
54600;BME280;40500;51.084;16.958;2023-06-22T11:58:39;100535.95;;;30.18;100.00
54600;BME280;40500;51.084;16.958;2023-06-22T12:01:06;100531.25;;;30.22;100.00
54600;BME280;40500;51.084;16.958;2023-06-22T12:03:42;100527.20;;;30.41;100.00
54600;BME280;40500;51.084;16.958;2023-06-22T12:06:11;100522.61;;;30.62;100.00
54600;BME280;40500;51.084;16.958;2023-06-22T12:08:38;100515.11;;;30.80;99.87
54600;BME280;40500;51.084;16.958;2023-06-22T12:11:08;100512.64;;;30.97;98.61
54600;BME280;40500;51.084;16.958;2023-06-22T12:13:35;100512.09;;;31.03;94.91
54600;BME280;40500;51.084;16.958;2023-06-22T12:16:04;100506.32;;;31.10;94.17
54600;BME280;40500;51.084;16.958;2023-06-22T12:18:32;100499.81;;;31.22;94.55
54600;BME280;40500;51.084;16.958;2023-06-22T12:21:02;100499.60;;;31.32;91.74
54600;BME280;40500;51.084;16.958;2023-06-22T12:23:29;100495.02;;;31.34;92.21
54600;BME280;40500;51.084;16.958;2023-06-22T12:25:57;100496.36;;;31.42;93.13
54600;BME280;40500;51.084;16.958;2023-06-22T12:28:27;100496.45;;;31.52;92.00
54600;BME280;40500;51.084;16.958;2023-06-22T12:31:02;100496.86;;;31.57;89.12
54600;BME280;40500;51.084;16.958;2023-06-22T12:33:32;100493.88;;;31.58;86.21
54600;BME280;40500;51.084;16.958;2023-06-22T12:36:00;100494.06;;;31.75;90.28
54600;BME280;40500;51.084;16.958;2023-06-22T12:38:27;100489.58;;;31.96;91.82
54600;BME280;40500;51.084;16.958;2023-06-22T12:40:55;100489.06;;;32.04;85.62
54600;BME280;40500;51.084;16.958;2023-06-22T12:43:23;100483.79;;;32.15;90.24
54600;BME280;40500;51.084;16.958;2023-06-22T12:45:50;100479.94;;;32.13;85.92
54600;BME280;40500;51.084;16.958;2023-06-22T12:48:23;100478.59;;;32.02;87.03
54600;BME280;40500;51.084;16.958;2023-06-22T12:50:52;100471.63;;;32.07;88.32
54600;BME280;40500;51.084;16.958;2023-06-22T12:53:22;100468.60;;;31.94;85.89
54600;BME280;40500;51.084;16.958;2023-06-22T12:55:51;100470.14;;;31.95;83.18
54600;BME280;40500;51.084;16.958;2023-06-22T12:58:19;100463.19;;;32.01;82.50
54600;BME280;40500;51.084;16.958;2023-06-22T13:00:47;100465.77;;;32.17;82.58
54600;BME280;40500;51.084;16.958;2023-06-22T13:03:14;100463.81;;;32.43;85.73
54600;BME280;40500;51.084;16.958;2023-06-22T13:05:42;100465.00;;;32.67;84.59
54600;BME280;40500;51.084;16.958;2023-06-22T13:08:10;100464.41;;;32.84;81.44
54600;BME280;40500;51.084;16.958;2023-06-22T13:10:40;100459.95;;;33.03;80.97
54600;BME280;40500;51.084;16.958;2023-06-22T13:13:07;100461.34;;;33.16;80.62
54600;BME280;40500;51.084;16.958;2023-06-22T13:15:35;100457.52;;;33.12;75.00
54600;BME280;40500;51.084;16.958;2023-06-22T13:18:03;100459.94;;;33.05;75.67
54600;BME280;40500;51.084;16.958;2023-06-22T13:20:30;100458.23;;;33.27;78.83
54600;BME280;40500;51.084;16.958;2023-06-22T13:23:12;100457.10;;;33.55;79.37
54600;BME280;40500;51.084;16.958;2023-06-22T13:25:40;100451.65;;;33.75;77.10
54600;BME280;40500;51.084;16.958;2023-06-22T13:28:07;100452.40;;;33.82;76.87
54600;BME280;40500;51.084;16.958;2023-06-22T13:30:54;100451.02;;;33.98;75.54
54600;BME280;40500;51.084;16.958;2023-06-22T13:33:22;100445.91;;;34.09;78.02